Time;durP1;ratioP1;P1;durP2;ratioP2;P2;SDS_P1;SDS_P2;PMS_P1;PMS_P2;Temp;Humidity;BMP_temperature;BMP_pressure;BME280_temperature;BME280_humidity;BME280_pressure;Samples;Min_cycle;Max_cycle;Signal;HPM_P1;HPM_P2
2022/03/27 00:00:45;;;;;;;;;;;;;;;;;;5053179;28;1295;-70
2022/03/27 00:03:11;;;;;;;;;;;;;;;;;;5071214;28;888;-69
2022/03/27 00:05:38;;;;;;;;;;;;;;;;;;5071275;28;1070;-69
2022/03/27 00:08:05;;;;;;;;;;;;;;;;;;5070713;28;1061;-70
2022/03/27 00:11:23;;;;;;;;;;;;;;;;;;5070661;28;1416;-70
2022/03/27 00:13:17;;;;;;;;;;;;;;;;;;5070877;28;1196;-69
2022/03/27 00:15:44;;;;;;;;;;;;;;;;;;5071147;28;1061;-69
2022/03/27 00:18:10;;;;;;;;;;;;;;;;;;5070609;28;954;-69
2022/03/27 00:20:36;;;;;;;;;;;;;;;;;;5070701;28;1922;-70
2022/03/27 00:23:04;;;;;;;;;;;;;;;;;;5070992;28;816;-70
2022/03/27 00:25:30;;;;;;;;;;;;;;;;;;5070967;28;1109;-69
2022/03/27 00:27:56;;;;;;;;;;;;;;;;;;5070644;28;989;-70
2022/03/27 00:30:22;;;;;;;;;;;;;;;;;;5070742;28;1400;-69
2022/03/27 00:32:48;;;;;;;;;;;;;;;;;;5071072;28;883;-69
2022/03/27 00:35:15;;;;;;;;;;;;;;;;;;5052540;28;1050;-69
2022/03/27 00:37:41;;;;;;;;;;;;;;;;;;5070801;28;1073;-69
2022/03/27 00:40:09;;;;;;;;;;;;;;;;;;5070310;28;1977;-69
2022/03/27 00:42:36;;;;;;;;;;;;;;;;;;5070886;28;1013;-69
2022/03/27 00:45:02;;;;;;;;;;;;;;;;;;5068782;28;1458;-69
2022/03/27 00:47:28;;;;;;;;;;;;;;;;;;5069532;28;1512;-69
2022/03/27 00:49:55;;;;;;;;;;;;;;;;;;5070748;28;1353;-69
2022/03/27 00:52:21;;;;;;;;;;;;;;;;;;5071510;28;1073;-69
2022/03/27 00:54:47;;;;;;;;;;;;;;;;;;5080956;28;1171;-70
2022/03/27 00:57:14;;;;;;;;;;;;;;;;;;5081099;28;1093;-70
2022/03/27 00:59:41;;;;;;;;;;;;;;;;;;5070943;28;1994;-69
2022/03/27 01:02:07;;;;;;;;;;;;;;;;;;5070519;28;793;-69
2022/03/27 01:04:34;;;;;;;;;;;;;;;;;;5070667;28;1003;-70
2022/03/27 01:07:00;;;;;;;;;;;;;;;;;;5070293;28;749;-69
2022/03/27 01:09:37;;;;;;;;;;;;;;;;;;5072182;28;1348;-70
2022/03/27 01:12:07;;;;;;;;;;;;;;;;;;5074275;28;989;-69
2022/03/27 01:14:34;;;;;;;;;;;;;;;;;;5074331;28;938;-69
2022/03/27 01:17:01;;;;;;;;;;;;;;;;;;5074155;28;1143;-70
2022/03/27 01:19:28;;;;;;;;;;;;;;;;;;5074076;28;1969;-69
2022/03/27 01:21:55;;;;;;;;;;;;;;;;;;5074409;28;891;-70
2022/03/27 01:24:22;;;;;;;;;;;;;;;;;;5074321;28;1113;-69
2022/03/27 01:26:48;;;;;;;;;;;;;;;;;;5074093;28;841;-69
2022/03/27 01:29:14;;;;;;;;;;;;;;;;;;5073665;28;1328;-70
2022/03/27 01:31:40;;;;;;;;;;;;;;;;;;5074210;28;855;-70
2022/03/27 01:34:06;;;;;;;;;;;;;;;;;;5074083;28;883;-69
2022/03/27 01:36:34;;;;;;;;;;;;;;;;;;5073763;28;1081;-70
2022/03/27 01:39:02;;;;;;;;;;;;;;;;;;5073549;28;1914;-69
2022/03/27 01:41:29;;;;;;;;;;;;;;;;;;5073790;28;1085;-69
2022/03/27 01:43:55;;;;;;;;;;;;;;;;;;5056085;28;1222;-70
2022/03/27 01:46:22;;;;;;;;;;;;;;;;;;5073434;28;793;-69
2022/03/27 01:48:48;;;;;;;;;;;;;;;;;;5073277;28;816;-70
2022/03/27 01:51:14;;;;;;;;;;;;;;;;;;5073652;28;1269;-70
2022/03/27 01:53:41;;;;;;;;;;;;;;;;;;5073888;28;931;-70
2022/03/27 01:56:09;;;;;;;;;;;;;;;;;;5073346;28;1081;-69
2022/03/27 01:58:37;;;;;;;;;;;;;;;;;;5073482;28;1153;-69
2022/03/27 02:01:03;;;;;;;;;;;;;;;;;;5073189;28;1918;-69
2022/03/27 02:03:30;;;;;;;;;;;;;;;;;;5073570;28;702;-69
2022/03/27 02:05:56;;;;;;;;;;;;;;;;;;5055250;28;1136;-69
2022/03/27 02:08:23;;;;;;;;;;;;;;;;;;5072662;28;1002;-69
2022/03/27 02:10:49;;;;;;;;;;;;;;;;;;5073066;28;1339;-69
2022/03/27 02:13:18;;;;;;;;;;;;;;;;;;5055371;28;1124;-69
2022/03/27 02:15:45;;;;;;;;;;;;;;;;;;5073486;28;800;-69
2022/03/27 02:18:11;;;;;;;;;;;;;;;;;;5072727;28;975;-69
2022/03/27 02:20:39;;;;;;;;;;;;;;;;;;5072401;28;1926;-69
2022/03/27 02:23:05;;;;;;;;;;;;;;;;;;5073070;28;1148;-70
2022/03/27 02:25:32;;;;;;;;;;;;;;;;;;5073149;28;880;-69
2022/03/27 02:27:58;;;;;;;;;;;;;;;;;;5072124;28;1125;-69
2022/03/27 02:30:26;;;;;;;;;;;;;;;;;;5072963;28;1328;-69
2022/03/27 02:32:52;;;;;;;;;;;;;;;;;;5073088;28;962;-69
2022/03/27 02:35:18;;;;;;;;;;;;;;;;;;5073196;28;1053;-69
2022/03/27 02:37:44;;;;;;;;;;;;;;;;;;5072612;28;863;-69
2022/03/27 02:40:11;;;;;;;;;;;;;;;;;;5071204;28;1918;-69
2022/03/27 02:42:37;;;;;;;;;;;;;;;;;;5072848;28;1179;-69
2022/03/27 02:45:05;;;;;;;;;;;;;;;;;;5072455;28;796;-70
2022/03/27 02:47:32;;;;;;;;;;;;;;;;;;5072295;28;1322;-69
2022/03/27 02:49:59;;;;;;;;;;;;;;;;;;5072811;28;1402;-70
2022/03/27 02:52:25;;;;;;;;;;;;;;;;;;5072798;28;1140;-70
2022/03/27 02:54:51;;;;;;;;;;;;;;;;;;5067480;28;1859;-69
2022/03/27 02:57:17;;;;;;;;;;;;;;;;;;5053302;28;1186;-69
2022/03/27 02:59:44;;;;;;;;;;;;;;;;;;5063730;28;1922;-69
2022/03/27 03:02:10;;;;;;;;;;;;;;;;;;5072483;28;1069;-69
2022/03/27 03:04:38;;;;;;;;;;;;;;;;;;5072500;28;1049;-69
2022/03/27 03:07:04;;;;;;;;;;;;;;;;;;5071921;28;1069;-69
2022/03/27 03:09:30;;;;;;;;;;;;;;;;;;5072199;28;1313;-69
2022/03/27 03:11:57;;;;;;;;;;;;;;;;;;5072549;28;1065;-69
2022/03/27 03:14:23;;;;;;;;;;;;;;;;;;5072301;28;1073;-69
2022/03/27 03:16:49;;;;;;;;;;;;;;;;;;5071490;28;772;-68
2022/03/27 03:19:16;;;;;;;;;;;;;;;;;;5072321;28;1268;-69
2022/03/27 03:21:43;;;;;;;;;;;;;;;;;;5072233;28;1981;-69
2022/03/27 03:24:09;;;;;;;;;;;;;;;;;;5072145;28;947;-69
2022/03/27 03:26:36;;;;;;;;;;;;;;;;;;5071761;28;935;-69
2022/03/27 03:29:02;;;;;;;;;;;;;;;;;;5071913;28;1308;-68
2022/03/27 03:31:29;;;;;;;;;;;;;;;;;;5071869;28;1073;-68
2022/03/27 03:33:55;;;;;;;;;;;;;;;;;;5070477;28;816;-69
2022/03/27 03:36:21;;;;;;;;;;;;;;;;;;5071686;28;972;-68
2022/03/27 03:38:49;;;;;;;;;;;;;;;;;;5071770;28;1073;-69
2022/03/27 03:41:16;;;;;;;;;;;;;;;;;;5053804;28;1910;-68
2022/03/27 03:43:42;;;;;;;;;;;;;;;;;;5071680;28;1058;-69
2022/03/27 03:46:09;;;;;;;;;;;;;;;;;;5071645;28;1054;-69
2022/03/27 03:48:35;;;;;;;;;;;;;;;;;;5071633;28;710;-69
2022/03/27 03:51:01;;;;;;;;;;;;;;;;;;5071492;28;1452;-69
2022/03/27 03:53:28;;;;;;;;;;;;;;;;;;5071746;28;783;-69
2022/03/27 03:55:56;;;;;;;;;;;;;;;;;;5054201;28;1666;-69
2022/03/27 03:58:22;;;;;;;;;;;;;;;;;;5077031;28;959;-69
2022/03/27 04:00:50;;;;;;;;;;;;;;;;;;5081839;28;1958;-69
2022/03/27 04:03:16;;;;;;;;;;;;;;;;;;5077867;28;1168;-69
2022/03/27 04:05:43;;;;;;;;;;;;;;;;;;5071170;28;1050;-69
2022/03/27 04:08:09;;;;;;;;;;;;;;;;;;5070990;28;792;-69
2022/03/27 04:10:35;;;;;;;;;;;;;;;;;;5070873;28;1360;-69
2022/03/27 04:13:03;;;;;;;;;;;;;;;;;;5071231;28;1003;-68
2022/03/27 04:15:29;;;;;;;;;;;;;;;;;;5071049;28;1089;-69
2022/03/27 04:17:55;;;;;;;;;;;;;;;;;;5052617;28;1147;-69
2022/03/27 04:20:21;;;;;;;;;;;;;;;;;;5070971;28;1914;-68
2022/03/27 04:22:47;;;;;;;;;;;;;;;;;;5070979;28;969;-69
2022/03/27 04:25:14;;;;;;;;;;;;;;;;;;5070922;28;1125;-69
2022/03/27 04:27:40;;;;;;;;;;;;;;;;;;5070622;28;985;-69
2022/03/27 04:30:09;;;;;;;;;;;;;;;;;;5071158;28;1357;-69
2022/03/27 04:32:35;;;;;;;;;;;;;;;;;;5112016;22;1987;-69
2022/03/27 04:35:01;;;;;;;;;;;;;;;;;;5110918;28;1180;-68
2022/03/27 04:37:27;;;;;;;;;;;;;;;;;;5110704;28;1148;-68
2022/03/27 04:39:59;;;;;;;;;;;;;;;;;;5110933;28;1913;-68
2022/03/27 04:42:26;;;;;;;;;;;;;;;;;;5111144;28;1454;-68
2022/03/27 04:44:52;;;;;;;;;;;;;;;;;;5111013;28;721;-69
2022/03/27 04:47:20;;;;;;;;;;;;;;;;;;5111437;28;1013;-69
2022/03/27 04:49:46;;;;;;;;;;;;;;;;;;5098909;28;1541;-69
2022/03/27 04:52:12;;;;;;;;;;;;;;;;;;5098928;28;1608;-70
2022/03/27 04:54:39;;;;;;;;;;;;;;;;;;5110555;28;1250;-70
2022/03/27 04:57:05;;;;;;;;;;;;;;;;;;5098466;28;1457;-70
2022/03/27 04:59:32;;;;;;;;;;;;;;;;;;5090536;28;946;-70
2022/03/27 05:01:58;;;;;;;;;;;;;;;;;;5090455;28;1973;-70
2022/03/27 05:04:26;;;;;;;;;;;;;;;;;;5091746;28;1569;-70
2022/03/27 05:06:52;;;;;;;;;;;;;;;;;;5090250;28;1116;-69
2022/03/27 05:09:19;;;;;;;;;;;;;;;;;;5099586;28;1573;-71
2022/03/27 05:11:45;;;;;;;;;;;;;;;;;;5100474;28;1596;-69
2022/03/27 05:14:11;;;;;;;;;;;;;;;;;;5092563;28;2152;-68
2022/03/27 05:16:37;;;;;;;;;;;;;;;;;;5090099;28;943;-69
2022/03/27 05:19:04;;;;;;;;;;;;;;;;;;5089396;28;1073;-68
2022/03/27 05:21:31;;;;;;;;;;;;;;;;;;5090348;28;1911;-69
2022/03/27 05:23:58;;;;;;;;;;;;;;;;;;5090032;28;1113;-69
2022/03/27 05:26:24;;;;;;;;;;;;;;;;;;5089247;28;1069;-69
2022/03/27 05:28:50;;;;;;;;;;;;;;;;;;5090334;28;1105;-69
2022/03/27 05:31:17;;;;;;;;;;;;;;;;;;5090098;28;1400;-69
2022/03/27 05:33:43;;;;;;;;;;;;;;;;;;5090103;28;1144;-69
2022/03/27 05:36:10;;;;;;;;;;;;;;;;;;5089734;28;1057;-68
2022/03/27 05:38:38;;;;;;;;;;;;;;;;;;5090101;28;781;-69
2022/03/27 05:41:04;;;;;;;;;;;;;;;;;;5089776;28;1971;-69
2022/03/27 05:43:30;;;;;;;;;;;;;;;;;;5090020;28;959;-69
2022/03/27 05:45:56;;;;;;;;;;;;;;;;;;5089946;28;721;-69
2022/03/27 05:48:23;;;;;;;;;;;;;;;;;;5089964;28;1073;-68
2022/03/27 05:50:49;;;;;;;;;;;;;;;;;;5089807;28;1309;-69
2022/03/27 05:53:15;;;;;;;;;;;;;;;;;;5089938;28;1061;-69
2022/03/27 05:55:43;;;;;;;;;;;;;;;;;;5090809;28;749;-69
2022/03/27 05:58:09;;;;;;;;;;;;;;;;;;5093333;28;1069;-69
2022/03/27 06:00:35;;;;;;;;;;;;;;;;;;5093655;28;1977;-69
2022/03/27 06:03:01;;;;;;;;;;;;;;;;;;5093078;28;1357;-68
2022/03/27 06:05:28;;;;;;;;;;;;;;;;;;5093488;28;930;-68
2022/03/27 06:07:54;;;;;;;;;;;;;;;;;;5093441;28;1117;-68
2022/03/27 06:10:22;;;;;;;;;;;;;;;;;;5093641;28;892;-68
2022/03/27 06:12:49;;;;;;;;;;;;;;;;;;5093318;28;1418;-68
2022/03/27 06:15:15;;;;;;;;;;;;;;;;;;5093651;28;918;-69
2022/03/27 06:17:42;;;;;;;;;;;;;;;;;;5093384;28;772;-68
2022/03/27 06:20:09;;;;;;;;;;;;;;;;;;5093335;28;1093;-69
2022/03/27 06:22:35;;;;;;;;;;;;;;;;;;5093281;28;1898;-68
2022/03/27 06:25:02;;;;;;;;;;;;;;;;;;5093351;28;799;-67
2022/03/27 06:27:28;;;;;;;;;;;;;;;;;;5092833;28;1272;-68
2022/03/27 06:29:55;;;;;;;;;;;;;;;;;;5092889;28;827;-67
2022/03/27 06:32:22;;;;;;;;;;;;;;;;;;5093081;28;1340;-69
2022/03/27 06:34:48;;;;;;;;;;;;;;;;;;5093074;28;883;-68
2022/03/27 06:37:14;;;;;;;;;;;;;;;;;;5092861;28;1081;-68
2022/03/27 06:39:40;;;;;;;;;;;;;;;;;;5093136;28;1073;-68
2022/03/27 06:42:07;;;;;;;;;;;;;;;;;;5092964;28;1973;-69
2022/03/27 06:44:34;;;;;;;;;;;;;;;;;;5093363;28;1062;-69
2022/03/27 06:47:01;;;;;;;;;;;;;;;;;;5092826;28;1538;-69
2022/03/27 06:49:28;;;;;;;;;;;;;;;;;;5095085;28;1498;-69
2022/03/27 06:51:54;;;;;;;;;;;;;;;;;;5092799;28;1343;-68
2022/03/27 06:54:21;;;;;;;;;;;;;;;;;;5092837;28;1077;-69
2022/03/27 06:56:47;;;;;;;;;;;;;;;;;;5092509;28;1056;-68
2022/03/27 06:59:13;;;;;;;;;;;;;;;;;;5092849;28;975;-68
2022/03/27 07:04:24;;;;;;;;;;;;;;;;;;5092484;28;852;-68
2022/03/27 07:06:50;;;;;;;;;;;;;;;;;;5091866;28;1002;-68
2022/03/27 07:09:18;;;;;;;;;;;;;;;;;;5092617;28;1061;-68
2022/03/27 07:11:44;;;;;;;;;;;;;;;;;;5092801;28;1282;-68
2022/03/27 07:14:12;;;;;;;;;;;;;;;;;;5092819;28;1072;-68
2022/03/27 07:16:38;;;;;;;;;;;;;;;;;;5092057;28;1081;-68
2022/03/27 07:19:05;;;;;;;;;;;;;;;;;;5074253;28;1117;-67
2022/03/27 07:21:32;;;;;;;;;;;;;;;;;;5091831;28;1973;-68
2022/03/27 07:23:59;;;;;;;;;;;;;;;;;;5092205;28;935;-68
2022/03/27 07:26:25;;;;;;;;;;;;;;;;;;5091941;28;888;-68
2022/03/27 07:28:51;;;;;;;;;;;;;;;;;;5091997;28;828;-67
2022/03/27 07:31:17;;;;;;;;;;;;;;;;;;5091945;28;1377;-68
2022/03/27 07:33:43;;;;;;;;;;;;;;;;;;5092003;28;1144;-68
2022/03/27 07:36:10;;;;;;;;;;;;;;;;;;5091217;28;1145;-68
2022/03/27 07:38:37;;;;;;;;;;;;;;;;;;5091185;28;863;-68
2022/03/27 07:41:04;;;;;;;;;;;;;;;;;;5091794;28;1922;-70
2022/03/27 07:43:30;;;;;;;;;;;;;;;;;;5091932;28;1121;-68
2022/03/27 07:45:57;;;;;;;;;;;;;;;;;;5091453;28;1057;-69
2022/03/27 07:48:23;;;;;;;;;;;;;;;;;;5093116;28;1592;-69
2022/03/27 07:50:54;;;;;;;;;;;;;;;;;;5091659;28;1339;-69
2022/03/27 07:53:20;;;;;;;;;;;;;;;;;;5091070;28;1731;-68
2022/03/27 07:55:48;;;;;;;;;;;;;;;;;;5091053;28;1577;-67
2022/03/27 07:58:15;;;;;;;;;;;;;;;;;;5090451;28;1549;-70
2022/03/27 08:00:41;;;;;;;;;;;;;;;;;;5100688;28;1576;-69
2022/03/27 08:03:08;;;;;;;;;;;;;;;;;;5096753;28;1918;-68
2022/03/27 08:05:34;;;;;;;;;;;;;;;;;;5107352;28;1560;-70
2022/03/27 08:08:00;;;;;;;;;;;;;;;;;;5110226;28;1405;-69
2022/03/27 08:10:27;;;;;;;;;;;;;;;;;;5095901;28;1810;-69
2022/03/27 08:12:54;;;;;;;;;;;;;;;;;;5111430;28;1777;-68
2022/03/27 08:15:21;;;;;;;;;;;;;;;;;;5111032;28;1667;-67
2022/03/27 08:17:47;;;;;;;;;;;;;;;;;;5111415;28;1060;-68
2022/03/27 08:20:13;;;;;;;;;;;;;;;;;;5109293;28;1465;-68
2022/03/27 08:22:40;;;;;;;;;;;;;;;;;;5107968;28;1983;-69
2022/03/27 08:25:06;;;;;;;;;;;;;;;;;;5091922;28;1648;-68
2022/03/27 08:27:32;;;;;;;;;;;;;;;;;;5091643;28;1610;-68
2022/03/27 08:29:59;;;;;;;;;;;;;;;;;;5090605;28;1133;-68
2022/03/27 08:32:26;;;;;;;;;;;;;;;;;;5091039;28;1322;-67
2022/03/27 08:34:52;;;;;;;;;;;;;;;;;;5091181;28;906;-67
2022/03/27 08:37:18;;;;;;;;;;;;;;;;;;5092296;28;1736;-67
2022/03/27 08:39:45;;;;;;;;;;;;;;;;;;5099345;28;879;-67
2022/03/27 08:42:12;;;;;;;;;;;;;;;;;;5104098;27;1917;-68
2022/03/27 08:44:38;;;;;;;;;;;;;;;;;;5100375;28;1758;-68
2022/03/27 08:47:07;;;;;;;;;;;;;;;;;;5108482;28;1134;-68
2022/03/27 08:49:35;;;;;;;;;;;;;;;;;;5110295;28;1061;-68
2022/03/27 08:52:04;;;;;;;;;;;;;;;;;;5110439;28;1434;-68
2022/03/27 08:54:37;;;;;;;;;;;;;;;;;;5108037;28;2004;-69
2022/03/27 08:57:05;;;;;;;;;;;;;;;;;;5099327;28;1394;-69
2022/03/27 08:59:32;;;;;;;;;;;;;;;;;;5110460;28;1137;-69
2022/03/27 09:01:58;;;;;;;;;;;;;;;;;;5110577;28;1918;-67
2022/03/27 09:04:26;;;;;;;;;;;;;;;;;;5110592;28;1077;-69
2022/03/27 09:06:52;;;;;;;;;;;;;;;;;;5110599;28;1057;-69
2022/03/27 09:09:18;;;;;;;;;;;;;;;;;;5109093;28;836;-68
2022/03/27 09:11:45;;;;;;;;;;;;;;;;;;5110858;28;1378;-68
2022/03/27 09:14:11;;;;;;;;;;;;;;;;;;5110526;28;1084;-68
2022/03/27 09:17:00;;;;;;;;;;;;;;;;;;5109948;28;1053;-69
2022/03/27 09:19:33;;;;;;;;;;;;;;;;;;5072082;28;1038;-69
2022/03/27 09:21:59;;;;;;;;;;;;;;;;;;5091550;28;1918;-69
2022/03/27 09:24:32;;;;;;;;;;;;;;;;;;5110706;28;1101;-70
2022/03/27 09:27:00;;;;;;;;;;;;;;;;;;5110502;28;1093;-69
2022/03/27 09:29:26;;;;;;;;;;;;;;;;;;5110764;28;1082;-69
2022/03/27 09:31:56;;;;;;;;;;;;;;;;;;5113056;28;1284;-70
2022/03/27 09:34:22;;;;;;;;;;;;;;;;;;5114414;28;1058;-69
2022/03/27 09:36:51;;;;;;;;;;;;;;;;;;5114395;28;788;-69
2022/03/27 09:39:18;;;;;;;;;;;;;;;;;;5114612;28;1136;-70
2022/03/27 09:41:45;;;;;;;;;;;;;;;;;;5114385;28;1917;-69
2022/03/27 09:44:12;;;;;;;;;;;;;;;;;;5113881;28;788;-67
2022/03/27 09:46:55;;;;;;;;;;;;;;;;;;5114191;28;983;-70
2022/03/27 09:49:21;;;;;;;;;;;;;;;;;;5114563;28;883;-69
2022/03/27 09:51:56;;;;;;;;;;;;;;;;;;5114096;28;1305;-69
2022/03/27 09:54:23;;;;;;;;;;;;;;;;;;5113245;28;1544;-70
2022/03/27 09:56:49;;;;;;;;;;;;;;;;;;5114210;28;805;-69
2022/03/27 09:59:28;;;;;;;;;;;;;;;;;;5113591;28;1104;-70
2022/03/27 10:01:56;;;;;;;;;;;;;;;;;;5113553;28;1909;-70
2022/03/27 10:04:22;;;;;;;;;;;;;;;;;;5113137;28;784;-70
2022/03/27 10:06:48;;;;;;;;;;;;;;;;;;5113481;28;1093;-70
2022/03/27 10:09:15;;;;;;;;;;;;;;;;;;5113537;28;653;-69
2022/03/27 10:11:42;;;;;;;;;;;;;;;;;;5113166;28;1301;-70
2022/03/27 10:14:09;;;;;;;;;;;;;;;;;;5113499;28;1001;-69
2022/03/27 10:16:36;;;;;;;;;;;;;;;;;;5113525;28;961;-69
2022/03/27 10:19:05;;;;;;;;;;;;;;;;;;5113908;28;1081;-70
2022/03/27 10:21:32;;;;;;;;;;;;;;;;;;5113816;28;1301;-70
2022/03/27 10:24:03;;;;;;;;;;;;;;;;;;5113352;28;1985;-70
2022/03/27 10:26:31;;;;;;;;;;;;;;;;;;5113533;28;974;-70
2022/03/27 10:28:57;;;;;;;;;;;;;;;;;;5113306;28;1120;-71
2022/03/27 10:31:23;;;;;;;;;;;;;;;;;;5114885;28;1312;-68
2022/03/27 10:33:50;;;;;;;;;;;;;;;;;;5113414;28;1140;-70
2022/03/27 10:36:18;;;;;;;;;;;;;;;;;;5112998;28;1093;-70
2022/03/27 10:38:46;;;;;;;;;;;;;;;;;;5113593;28;1069;-70
2022/03/27 10:41:14;;;;;;;;;;;;;;;;;;5076186;28;1536;-70
2022/03/27 10:43:44;;;;;;;;;;;;;;;;;;5093901;28;1973;-70
2022/03/27 10:46:14;;;;;;;;;;;;;;;;;;5091668;28;1066;-70
2022/03/27 10:48:42;;;;;;;;;;;;;;;;;;5096009;28;1529;-71
2022/03/27 10:51:08;;;;;;;;;;;;;;;;;;5080112;28;1631;-70
2022/03/27 10:53:35;;;;;;;;;;;;;;;;;;5113325;28;772;-70
2022/03/27 10:56:01;;;;;;;;;;;;;;;;;;5094867;28;1655;-69
2022/03/27 10:58:34;;;;;;;;;;;;;;;;;;5091729;28;788;-69
2022/03/27 11:01:03;;;;;;;;;;;;;;;;;;5096237;28;1587;-71
2022/03/27 11:03:42;;;;;;;;;;;;;;;;;;5108673;28;1921;-72
2022/03/27 11:06:19;;;;;;;;;;;;;;;;;;5109209;28;1604;-70
2022/03/27 11:08:46;;;;;;;;;;;;;;;;;;5111944;28;1601;-70
2022/03/27 11:11:12;;;;;;;;;;;;;;;;;;5109321;28;1675;-70
2022/03/27 11:13:40;;;;;;;;;;;;;;;;;;5112850;28;859;-69
2022/03/27 11:16:08;;;;;;;;;;;;;;;;;;5112393;28;799;-70
2022/03/27 11:18:35;;;;;;;;;;;;;;;;;;5112569;28;1112;-71
2022/03/27 11:21:01;;;;;;;;;;;;;;;;;;5112626;28;1308;-71
2022/03/27 11:23:37;;;;;;;;;;;;;;;;;;5111910;28;2346;-71
2022/03/27 11:26:04;;;;;;;;;;;;;;;;;;5077264;28;1560;-71
2022/03/27 11:28:47;;;;;;;;;;;;;;;;;;5092563;28;1600;-70
2022/03/27 11:31:18;;;;;;;;;;;;;;;;;;5091732;28;1369;-71
2022/03/27 11:33:45;;;;;;;;;;;;;;;;;;5092146;28;1007;-70
2022/03/27 11:36:24;;;;;;;;;;;;;;;;;;5091215;28;1549;-71
2022/03/27 11:38:54;;;;;;;;;;;;;;;;;;5091989;28;792;-70
2022/03/27 11:41:25;;;;;;;;;;;;;;;;;;5092058;28;1329;-71
2022/03/27 11:43:51;;;;;;;;;;;;;;;;;;5092202;28;1971;-71
2022/03/27 11:46:22;;;;;;;;;;;;;;;;;;5091507;28;1132;-70
2022/03/27 11:48:53;;;;;;;;;;;;;;;;;;5091793;28;1061;-71
2022/03/27 11:51:20;;;;;;;;;;;;;;;;;;5091407;28;1339;-71
2022/03/27 11:53:46;;;;;;;;;;;;;;;;;;5091119;28;919;-70
2022/03/27 11:56:12;;;;;;;;;;;;;;;;;;5091434;28;808;-71
2022/03/27 11:58:39;;;;;;;;;;;;;;;;;;5091015;28;994;-70
2022/03/27 12:01:07;;;;;;;;;;;;;;;;;;5072887;28;1332;-70
2022/03/27 12:03:35;;;;;;;;;;;;;;;;;;5091286;28;1914;-71
2022/03/27 12:06:05;;;;;;;;;;;;;;;;;;5091122;28;725;-70
2022/03/27 12:08:34;;;;;;;;;;;;;;;;;;5091280;28;936;-70
2022/03/27 12:11:05;;;;;;;;;;;;;;;;;;5091314;28;1392;-71
2022/03/27 12:13:34;;;;;;;;;;;;;;;;;;5091051;28;773;-70
2022/03/27 12:16:01;;;;;;;;;;;;;;;;;;5090995;28;1080;-71
2022/03/27 12:18:28;;;;;;;;;;;;;;;;;;5090231;28;1109;-69
2022/03/27 12:20:55;;;;;;;;;;;;;;;;;;5091260;28;1313;-71
2022/03/27 12:23:23;;;;;;;;;;;;;;;;;;5090814;28;1922;-71
2022/03/27 12:25:56;;;;;;;;;;;;;;;;;;5090872;28;773;-69
2022/03/27 12:31:10;;;;;;;;;;;;;;;;;;5109642;28;1477;-67
2022/03/27 12:33:36;;;;;;;;;;;;;;;;;;5101554;28;1882;-67
2022/03/27 12:36:04;;;;;;;;;;;;;;;;;;5096300;28;1580;-69
2022/03/27 12:38:31;;;;;;;;;;;;;;;;;;5110948;28;1096;-68
2022/03/27 12:40:57;;;;;;;;;;;;;;;;;;5103902;28;1465;-69
2022/03/27 12:43:23;;;;;;;;;;;;;;;;;;5090527;28;1913;-69
2022/03/27 12:45:49;;;;;;;;;;;;;;;;;;5090752;28;1002;-69
2022/03/27 12:48:16;;;;;;;;;;;;;;;;;;5090300;28;1084;-70
2022/03/27 12:50:43;;;;;;;;;;;;;;;;;;5072602;28;1382;-70
2022/03/27 12:53:12;;;;;;;;;;;;;;;;;;5090364;28;1302;-70
2022/03/27 12:55:42;;;;;;;;;;;;;;;;;;5093065;28;1487;-70
2022/03/27 12:58:09;;;;;;;;;;;;;;;;;;5093910;28;1454;-68
2022/03/27 13:00:40;;;;;;;;;;;;;;;;;;5103311;28;1521;-71
2022/03/27 13:03:13;;;;;;;;;;;;;;;;;;5105085;28;1914;-70
2022/03/27 13:05:40;;;;;;;;;;;;;;;;;;5103519;28;1648;-71
2022/03/27 13:08:08;;;;;;;;;;;;;;;;;;5113836;28;1669;-69
2022/03/27 13:10:37;;;;;;;;;;;;;;;;;;5115126;28;908;-69
2022/03/27 13:13:05;;;;;;;;;;;;;;;;;;5107976;28;1749;-69
2022/03/27 13:15:47;;;;;;;;;;;;;;;;;;5094652;28;1009;-69
2022/03/27 13:18:15;;;;;;;;;;;;;;;;;;5100126;28;1638;-70
2022/03/27 13:20:42;;;;;;;;;;;;;;;;;;5101382;28;1529;-67
2022/03/27 13:23:09;;;;;;;;;;;;;;;;;;5114696;28;1981;-70
2022/03/27 13:25:37;;;;;;;;;;;;;;;;;;5104094;28;1390;-70
2022/03/27 13:28:03;;;;;;;;;;;;;;;;;;5093972;28;1022;-70
2022/03/27 13:30:29;;;;;;;;;;;;;;;;;;5095467;28;1659;-69
2022/03/27 13:32:56;;;;;;;;;;;;;;;;;;5105061;28;1529;-69
2022/03/27 13:35:22;;;;;;;;;;;;;;;;;;5090251;28;1093;-70
2022/03/27 13:37:49;;;;;;;;;;;;;;;;;;5096656;28;1576;-70
2022/03/27 13:40:15;;;;;;;;;;;;;;;;;;5097351;28;1666;-68
2022/03/27 13:43:00;;;;;;;;;;;;;;;;;;5100779;28;1922;-68
2022/03/27 13:45:26;;;;;;;;;;;;;;;;;;5100494;28;1542;-70
2022/03/27 13:47:53;;;;;;;;;;;;;;;;;;5111197;28;1056;-69
2022/03/27 13:50:19;;;;;;;;;;;;;;;;;;5094175;28;1108;-71
2022/03/27 13:52:45;;;;;;;;;;;;;;;;;;5113216;28;1505;-70
2022/03/27 13:55:11;;;;;;;;;;;;;;;;;;5113535;28;1307;-72
2022/03/27 13:57:38;;;;;;;;;;;;;;;;;;5105523;28;1620;-72
2022/03/27 14:00:06;;;;;;;;;;;;;;;;;;5112576;28;1628;-71
2022/03/27 14:02:37;;;;;;;;;;;;;;;;;;5106611;28;1449;-71
2022/03/27 14:05:04;;;;;;;;;;;;;;;;;;5093015;28;1972;-71
2022/03/27 14:07:30;;;;;;;;;;;;;;;;;;5093391;28;986;-71
2022/03/27 14:09:56;;;;;;;;;;;;;;;;;;5093377;28;1124;-71
2022/03/27 14:12:22;;;;;;;;;;;;;;;;;;5093118;28;1774;-71
2022/03/27 14:14:48;;;;;;;;;;;;;;;;;;5094798;28;1918;-69
2022/03/27 14:17:16;;;;;;;;;;;;;;;;;;5093446;28;1627;-71
2022/03/27 14:19:42;;;;;;;;;;;;;;;;;;5094729;28;1638;-72
2022/03/27 14:22:09;;;;;;;;;;;;;;;;;;5093094;28;1298;-71
2022/03/27 14:24:35;;;;;;;;;;;;;;;;;;5093123;28;784;-72
2022/03/27 14:27:01;;;;;;;;;;;;;;;;;;5083201;28;1588;-71
2022/03/27 14:29:27;;;;;;;;;;;;;;;;;;5112759;28;1293;-71
2022/03/27 14:31:55;;;;;;;;;;;;;;;;;;5112972;28;1394;-69
2022/03/27 14:34:22;;;;;;;;;;;;;;;;;;5113166;28;1917;-71
2022/03/27 14:36:50;;;;;;;;;;;;;;;;;;5113112;28;855;-71
2022/03/27 14:39:16;;;;;;;;;;;;;;;;;;5113153;28;1166;-71
2022/03/27 14:41:42;;;;;;;;;;;;;;;;;;5112504;28;1544;-71
2022/03/27 14:44:09;;;;;;;;;;;;;;;;;;5113363;28;1139;-71
2022/03/27 14:46:35;;;;;;;;;;;;;;;;;;5102278;28;1631;-72
2022/03/27 14:49:01;;;;;;;;;;;;;;;;;;5097057;28;1584;-71
2022/03/27 14:51:29;;;;;;;;;;;;;;;;;;5094527;28;1490;-72
2022/03/27 14:56:39;;;;;;;;;;;;;;;;;;5092597;28;1727;-71
2022/03/27 14:59:05;;;;;;;;;;;;;;;;;;5100218;28;2274;-70
2022/03/27 15:01:31;;;;;;;;;;;;;;;;;;5112418;28;1297;-70
2022/03/27 15:03:58;;;;;;;;;;;;;;;;;;5107054;28;1426;-70
2022/03/27 15:06:24;;;;;;;;;;;;;;;;;;5110013;28;1501;-70
2022/03/27 15:08:52;;;;;;;;;;;;;;;;;;5112680;28;1128;-70
2022/03/27 15:11:19;;;;;;;;;;;;;;;;;;5112511;28;1396;-69
2022/03/27 15:13:46;;;;;;;;;;;;;;;;;;5110592;28;1922;-70
2022/03/27 15:16:12;;;;;;;;;;;;;;;;;;5108346;28;1516;-70
2022/03/27 15:18:38;;;;;;;;;;;;;;;;;;5104811;28;1231;-72
2022/03/27 15:21:06;;;;;;;;;;;;;;;;;;5112461;28;1411;-71
2022/03/27 15:23:32;;;;;;;;;;;;;;;;;;5100070;28;1623;-70
2022/03/27 15:25:59;;;;;;;;;;;;;;;;;;5092425;28;950;-69
2022/03/27 15:28:26;;;;;;;;;;;;;;;;;;5093221;28;1529;-70
2022/03/27 15:30:52;;;;;;;;;;;;;;;;;;5092081;28;1385;-70
2022/03/27 15:33:18;;;;;;;;;;;;;;;;;;5093097;28;1981;-70
2022/03/27 15:35:44;;;;;;;;;;;;;;;;;;5092231;28;771;-70
2022/03/27 15:38:10;;;;;;;;;;;;;;;;;;5091768;28;1065;-70
2022/03/27 15:40:36;;;;;;;;;;;;;;;;;;5103189;28;1636;-69
2022/03/27 15:43:05;;;;;;;;;;;;;;;;;;5109642;28;1532;-70
2022/03/27 15:45:34;;;;;;;;;;;;;;;;;;5097817;28;1497;-70
2022/03/27 15:48:00;;;;;;;;;;;;;;;;;;5100185;28;1584;-69
2022/03/27 15:50:27;;;;;;;;;;;;;;;;;;5111119;28;1414;-71
2022/03/27 15:52:53;;;;;;;;;;;;;;;;;;5111683;28;1396;-70
2022/03/27 15:55:20;;;;;;;;;;;;;;;;;;5112175;28;1918;-69
2022/03/27 15:57:46;;;;;;;;;;;;;;;;;;5105004;28;1533;-69
2022/03/27 16:00:15;;;;;;;;;;;;;;;;;;5111582;28;1399;-69
2022/03/27 16:02:41;;;;;;;;;;;;;;;;;;5109259;28;1374;-69
2022/03/27 16:05:08;;;;;;;;;;;;;;;;;;5091154;28;1093;-69
2022/03/27 16:07:35;;;;;;;;;;;;;;;;;;5101613;28;1598;-70
2022/03/27 16:10:01;;;;;;;;;;;;;;;;;;5109042;28;1256;-70
2022/03/27 16:12:27;;;;;;;;;;;;;;;;;;5083018;28;2067;-69
2022/03/27 16:14:53;;;;;;;;;;;;;;;;;;5103885;28;1917;-69
2022/03/27 16:17:21;;;;;;;;;;;;;;;;;;5106311;28;1492;-68
2022/03/27 16:19:47;;;;;;;;;;;;;;;;;;5104850;28;1444;-69
2022/03/27 16:22:13;;;;;;;;;;;;;;;;;;5110920;28;1396;-69
2022/03/27 16:24:39;;;;;;;;;;;;;;;;;;5081150;28;1568;-69
2022/03/27 16:27:06;;;;;;;;;;;;;;;;;;5090784;28;843;-69
2022/03/27 16:29:32;;;;;;;;;;;;;;;;;;5099303;28;1871;-68
2022/03/27 16:31:58;;;;;;;;;;;;;;;;;;5095199;28;1600;-68
2022/03/27 16:34:28;;;;;;;;;;;;;;;;;;5090545;28;1922;-69
2022/03/27 16:36:54;;;;;;;;;;;;;;;;;;5091732;28;1620;-69
2022/03/27 16:39:21;;;;;;;;;;;;;;;;;;5087561;28;1538;-69
2022/03/27 16:41:47;;;;;;;;;;;;;;;;;;5088585;28;1510;-69
2022/03/27 16:44:13;;;;;;;;;;;;;;;;;;5088564;28;1561;-68
2022/03/27 16:46:39;;;;;;;;;;;;;;;;;;5104914;28;1401;-69
2022/03/27 16:49:05;;;;;;;;;;;;;;;;;;5089435;28;1231;-68
2022/03/27 16:51:33;;;;;;;;;;;;;;;;;;5106164;28;1568;-68
2022/03/27 16:53:59;;;;;;;;;;;;;;;;;;5094648;28;1914;-70
2022/03/27 16:56:25;;;;;;;;;;;;;;;;;;5090721;28;1431;-69
2022/03/27 16:58:51;;;;;;;;;;;;;;;;;;5100474;28;1778;-68
2022/03/27 17:01:18;;;;;;;;;;;;;;;;;;5104465;28;1628;-69
2022/03/27 17:03:44;;;;;;;;;;;;;;;;;;5094666;28;1359;-69
2022/03/27 17:06:10;;;;;;;;;;;;;;;;;;5088199;28;1049;-69
2022/03/27 17:08:38;;;;;;;;;;;;;;;;;;5092703;28;1619;-68
2022/03/27 17:11:04;;;;;;;;;;;;;;;;;;5103139;28;1488;-69
2022/03/27 17:13:31;;;;;;;;;;;;;;;;;;5108431;28;1619;-68